Terminal Aerodrome Forecast
Issued by NWS

Home | Current Version | Previous Version | Text Only | Print | Product List | Glossary On
Versions: 1 2 3 4 5 6 7 8 9 10 11 12 13 14 15 16 17 18 19 20
028
FTUS43 KDLH 281942 AAA
TAFBRD
TAF AMD
KBRD 281942Z 2820/2918 35008KT P6SM VCTS FEW035 BKN060CB
      TEMPO 2820/2822 4SM -RA BKN035
     FM290200 30008KT P6SM BKN070
     FM290700 29008KT P6SM BKN025
     FM290800 29008KT P6SM VCSH BKN015
     FM291400 30012G22KT P6SM VCSH OVC010=

USA.gov is the U.S. government's official web portal to all federal, state and local government web resources and services.